createdAt,value
2017-09-17T00:02:16.239Z,9.83
2017-09-17T00:04:44.482Z,10.67
2017-09-17T00:07:13.500Z,8.67
2017-09-17T00:09:41.747Z,9.63
2017-09-17T00:12:10.776Z,9.43
2017-09-17T00:14:39.024Z,7.80
2017-09-17T00:17:08.039Z,9.70
2017-09-17T00:19:36.288Z,8.80
2017-09-17T00:22:05.310Z,8.50
2017-09-17T00:24:33.546Z,7.90
2017-09-17T00:27:01.804Z,5.77
2017-09-17T00:29:30.039Z,5.10
2017-09-17T00:31:58.293Z,4.93
2017-09-17T00:34:27.294Z,3.37
2017-09-17T00:36:55.542Z,4.80
2017-09-17T00:39:23.785Z,6.17
2017-09-17T00:41:52.031Z,5.00
2017-09-17T00:44:20.276Z,5.23
2017-09-17T00:46:49.287Z,6.70
2017-09-17T00:49:17.535Z,4.40
2017-09-17T00:51:45.778Z,5.40
2017-09-17T00:54:14.029Z,4.40
2017-09-17T00:56:42.287Z,4.10
2017-09-17T00:59:11.290Z,4.40
2017-09-17T01:01:39.534Z,4.30
2017-09-17T01:04:08.549Z,3.07
2017-09-17T01:06:36.789Z,4.80
2017-09-17T01:09:05.041Z,6.50
2017-09-17T01:11:33.278Z,5.93
2017-09-17T01:14:01.535Z,5.50
2017-09-17T01:16:30.543Z,5.70
2017-09-17T01:18:58.800Z,7.70
2017-09-17T01:21:27.813Z,7.30
2017-09-17T01:23:56.058Z,7.13
2017-09-17T01:26:24.306Z,7.60
2017-09-17T01:28:52.555Z,8.10
2017-09-17T01:31:20.810Z,8.67
2017-09-17T01:33:49.058Z,8.90
2017-09-17T01:36:17.311Z,8.30
2017-09-17T01:38:45.554Z,9.00
2017-09-17T01:41:13.809Z,11.70
2017-09-17T01:43:42.061Z,11.27
2017-09-17T01:46:10.311Z,12.93
2017-09-17T01:48:38.559Z,11.20
2017-09-17T01:51:06.810Z,11.77
2017-09-17T01:53:35.063Z,14.10
2017-09-17T01:56:03.316Z,16.27
2017-09-17T01:58:31.563Z,16.50
2017-09-17T02:00:59.818Z,17.80
2017-09-17T02:03:28.856Z,15.37
2017-09-17T02:05:57.105Z,17.67
2017-09-17T02:08:25.364Z,18.93
2017-09-17T02:10:54.374Z,20.20
2017-09-17T02:13:22.647Z,21.60
2017-09-17T02:15:51.750Z,31.20
2017-09-17T02:18:20.010Z,33.57
2017-09-17T02:20:49.017Z,29.37
2017-09-17T02:23:17.267Z,28.00
2017-09-17T02:25:46.285Z,32.63
2017-09-17T02:28:14.534Z,27.57
2017-09-17T02:30:43.556Z,32.00
2017-09-17T02:33:11.803Z,34.13
2017-09-17T02:35:40.824Z,32.30
2017-09-17T02:38:09.086Z,27.50
2017-09-17T02:40:38.095Z,28.67
2017-09-17T02:43:06.338Z,30.63
2017-09-17T02:45:35.350Z,34.80
2017-09-17T02:48:04.368Z,30.27
2017-09-17T02:50:32.624Z,25.93
2017-09-17T02:53:00.882Z,30.00
2017-09-17T02:55:29.895Z,25.70
2017-09-17T02:57:58.234Z,28.77
2017-09-17T03:00:26.486Z,28.63
2017-09-17T03:02:54.833Z,29.40
2017-09-17T03:05:23.082Z,26.97
2017-09-17T03:07:52.098Z,27.23
2017-09-17T03:10:20.389Z,26.53
2017-09-17T03:12:48.658Z,28.80
2017-09-17T03:15:16.891Z,27.27
2017-09-17T03:17:45.907Z,25.67
2017-09-17T03:20:14.155Z,25.47
2017-09-17T03:22:43.186Z,24.00
2017-09-17T03:25:11.426Z,26.10
2017-09-17T03:27:39.670Z,27.60
2017-09-17T03:30:07.917Z,21.73
2017-09-17T03:32:36.183Z,25.47
2017-09-17T03:35:04.428Z,24.83
2017-09-17T03:37:32.679Z,28.27
2017-09-17T03:40:00.932Z,22.90
2017-09-17T03:42:29.191Z,26.20
2017-09-17T03:44:57.444Z,24.40
2017-09-17T03:47:26.451Z,25.83
2017-09-17T03:49:54.714Z,29.23
2017-09-17T03:52:23.718Z,26.60
2017-09-17T03:54:51.975Z,26.23
2017-09-17T03:57:20.990Z,22.33
2017-09-17T03:59:49.240Z,25.00
2017-09-17T04:02:18.260Z,29.67
2017-09-17T04:04:46.530Z,24.47
2017-09-17T04:07:14.785Z,25.23
2017-09-17T04:09:43.807Z,28.13
2017-09-17T04:12:12.078Z,27.43
2017-09-17T04:14:40.331Z,24.70
2017-09-17T04:17:09.339Z,28.57
2017-09-17T04:19:37.600Z,26.70
2017-09-17T04:22:06.612Z,26.87
2017-09-17T04:24:34.866Z,24.80
2017-09-17T04:27:03.885Z,29.17
2017-09-17T04:29:32.144Z,28.63
2017-09-17T04:32:01.150Z,27.90
2017-09-17T04:34:29.406Z,27.33
2017-09-17T04:36:58.415Z,30.30
2017-09-17T04:39:27.433Z,31.07
2017-09-17T04:41:55.677Z,29.17
2017-09-17T04:44:24.697Z,30.83
2017-09-17T04:46:52.947Z,28.67
2017-09-17T04:49:21.972Z,26.17
2017-09-17T04:51:50.216Z,28.23
2017-09-17T04:54:19.251Z,25.77
2017-09-17T04:56:47.504Z,26.77
2017-09-17T04:59:15.751Z,25.73
2017-09-17T05:01:44.762Z,24.97
2017-09-17T05:04:13.026Z,26.60
2017-09-17T05:06:42.040Z,25.30
2017-09-17T05:09:10.290Z,23.00
2017-09-17T05:11:39.304Z,24.13
2017-09-17T05:14:07.565Z,24.93
2017-09-17T05:16:36.579Z,22.40
2017-09-17T05:19:04.835Z,21.33
2017-09-17T05:21:33.087Z,22.63
2017-09-17T05:24:01.342Z,22.07
2017-09-17T05:26:29.592Z,22.97
2017-09-17T05:28:57.845Z,20.77
2017-09-17T05:31:26.100Z,21.93
2017-09-17T05:33:55.119Z,23.77
2017-09-17T05:36:23.375Z,24.10
2017-09-17T05:38:52.395Z,25.23
2017-09-17T05:41:20.647Z,24.77
2017-09-17T05:43:49.667Z,29.10
2017-09-17T05:46:17.954Z,22.73
2017-09-17T05:48:46.174Z,21.00
2017-09-17T05:51:15.194Z,20.70
2017-09-17T05:53:43.455Z,23.27
2017-09-17T05:56:12.469Z,19.03
2017-09-17T05:58:40.742Z,18.87
2017-09-17T06:01:08.996Z,18.53
2017-09-17T06:03:38.014Z,19.30
2017-09-17T06:06:06.265Z,18.90
2017-09-17T06:08:35.288Z,17.50
2017-09-17T06:11:03.544Z,16.60
2017-09-17T06:13:31.795Z,15.90
2017-09-17T06:16:00.042Z,15.10
2017-09-17T06:18:28.294Z,16.70
2017-09-17T06:20:56.548Z,16.20
2017-09-17T06:23:24.803Z,16.40
2017-09-17T06:25:53.817Z,17.40
2017-09-17T06:28:22.084Z,15.23
2017-09-17T06:30:51.090Z,16.23
2017-09-17T06:33:19.348Z,15.80
2017-09-17T06:35:48.363Z,14.30
2017-09-17T06:38:16.615Z,15.07
2017-09-17T06:40:45.636Z,14.07
2017-09-17T06:43:13.882Z,16.90
2017-09-17T06:45:42.904Z,13.80
2017-09-17T06:48:11.157Z,15.90
2017-09-17T06:50:40.175Z,15.47
2017-09-17T06:53:08.431Z,14.53
2017-09-17T06:55:36.698Z,14.73
2017-09-17T06:58:05.719Z,14.17
2017-09-17T07:00:33.982Z,14.70
2017-09-17T07:03:02.236Z,14.87
2017-09-17T07:05:31.270Z,13.83
2017-09-17T07:07:59.523Z,13.33
2017-09-17T07:10:27.778Z,12.30
2017-09-17T07:12:56.793Z,13.07
2017-09-17T07:15:25.047Z,12.80
2017-09-17T07:17:54.073Z,13.37
2017-09-17T07:20:22.327Z,13.90
2017-09-17T07:22:51.343Z,14.33
2017-09-17T07:25:19.611Z,14.47
2017-09-17T07:27:47.869Z,13.67
2017-09-17T07:30:16.890Z,12.80
2017-09-17T07:32:45.151Z,13.37
2017-09-17T07:35:13.419Z,14.57
2017-09-17T07:37:42.438Z,16.57
2017-09-17T07:40:10.700Z,16.27
2017-09-17T07:42:38.968Z,18.10
2017-09-17T07:45:07.233Z,16.67
2017-09-17T07:47:36.250Z,17.10
2017-09-17T07:50:04.507Z,13.80
2017-09-17T07:52:32.774Z,12.57
2017-09-17T07:55:01.803Z,13.43
2017-09-17T07:57:30.063Z,14.40
2017-09-17T07:59:58.326Z,13.43
2017-09-17T08:02:27.351Z,15.87
2017-09-17T08:04:55.610Z,29.70
2017-09-17T08:07:23.879Z,17.97
2017-09-17T08:09:52.147Z,13.13
2017-09-17T08:12:20.418Z,16.00
2017-09-17T08:14:49.442Z,14.10
2017-09-17T08:17:17.706Z,13.50
2017-09-17T08:19:45.970Z,11.90
2017-09-17T08:22:14.987Z,12.40
2017-09-17T08:24:43.256Z,11.30
2017-09-17T08:27:11.522Z,12.37
2017-09-17T08:29:39.783Z,11.00
2017-09-17T08:32:08.810Z,12.57
2017-09-17T08:34:37.080Z,18.07
2017-09-17T08:37:05.326Z,9.50
2017-09-17T08:39:34.358Z,12.30
2017-09-17T08:42:02.603Z,10.63
2017-09-17T08:44:30.878Z,10.47
2017-09-17T08:46:59.141Z,10.90
2017-09-17T08:49:28.167Z,9.23
2017-09-17T08:51:56.418Z,14.47
2017-09-17T08:54:24.680Z,12.10
2017-09-17T08:56:53.718Z,10.63
2017-09-17T08:59:21.979Z,10.80
2017-09-17T09:01:50.239Z,9.57
2017-09-17T09:04:19.256Z,9.07
2017-09-17T09:06:47.504Z,7.70
2017-09-17T09:09:16.517Z,5.70
2017-09-17T09:11:44.768Z,8.57
2017-09-17T09:14:13.778Z,8.87
2017-09-17T09:16:42.046Z,8.53
2017-09-17T09:19:11.063Z,8.83
2017-09-17T09:21:39.311Z,9.70
2017-09-17T09:24:08.342Z,9.87
2017-09-17T09:26:36.623Z,10.23
2017-09-17T09:29:04.889Z,9.60
2017-09-17T09:31:33.135Z,7.47
2017-09-17T09:34:02.168Z,11.17
2017-09-17T09:36:30.429Z,10.77
2017-09-17T09:38:58.703Z,10.63
2017-09-17T09:41:26.942Z,8.37
2017-09-17T09:43:55.983Z,10.03
2017-09-17T09:46:24.244Z,8.70
2017-09-17T09:48:52.500Z,8.13
2017-09-17T09:51:20.762Z,6.93
2017-09-17T09:53:49.799Z,7.87
2017-09-17T09:56:18.038Z,8.07
2017-09-17T09:58:47.070Z,7.67
2017-09-17T10:01:15.312Z,6.60
2017-09-17T10:03:44.340Z,7.30
2017-09-17T10:06:12.588Z,7.10
2017-09-17T10:08:40.852Z,6.80
2017-09-17T10:11:09.875Z,7.00
2017-09-17T10:13:38.125Z,6.37
2017-09-17T10:16:07.154Z,5.60
2017-09-17T10:18:35.400Z,5.73
2017-09-17T10:21:03.655Z,5.33
2017-09-17T10:23:32.673Z,6.00
2017-09-17T10:26:00.927Z,5.83
2017-09-17T10:28:29.943Z,5.17
2017-09-17T10:30:58.198Z,4.97
2017-09-17T10:33:27.223Z,4.90
2017-09-17T10:35:55.476Z,5.30
2017-09-17T10:38:24.516Z,4.93
2017-09-17T10:40:52.789Z,4.80
2017-09-17T10:43:21.041Z,5.17
2017-09-17T10:45:49.864Z,3.40
2017-09-17T10:48:18.209Z,4.53
2017-09-17T10:50:46.543Z,6.60
2017-09-17T10:53:14.876Z,4.00
2017-09-17T10:55:43.136Z,2.23
2017-09-17T10:58:11.431Z,1.40
2017-09-17T11:00:39.755Z,1.30
2017-09-17T11:03:08.820Z,2.80
2017-09-17T11:05:37.171Z,2.33
2017-09-17T11:08:05.428Z,1.50
2017-09-17T11:10:33.835Z,1.40
2017-09-17T11:13:02.144Z,1.30
2017-09-17T11:15:30.412Z,1.90
2017-09-17T11:17:58.662Z,1.20
2017-09-17T11:20:26.929Z,1.40
2017-09-17T11:22:55.219Z,1.10
2017-09-17T11:25:23.480Z,1.67
2017-09-17T11:27:51.718Z,1.20
2017-09-17T11:30:20.743Z,1.17
2017-09-17T11:32:48.994Z,1.10
2017-09-17T11:35:18.020Z,1.20
2017-09-17T11:37:46.285Z,1.10
2017-09-17T11:40:14.563Z,1.43
2017-09-17T11:42:42.821Z,2.40
2017-09-17T11:45:11.074Z,1.47
2017-09-17T11:47:40.088Z,1.07
2017-09-17T11:50:09.950Z,0.93
2017-09-17T11:52:38.494Z,1.27
2017-09-17T11:55:06.802Z,1.40
2017-09-17T11:57:35.042Z,1.60
2017-09-17T12:00:03.292Z,1.17
2017-09-17T12:02:32.306Z,1.50
2017-09-17T12:05:00.551Z,1.20
2017-09-17T12:07:28.808Z,1.57
2017-09-17T12:09:57.083Z,1.40
2017-09-17T12:12:25.347Z,1.20
2017-09-17T12:14:53.588Z,1.70
2017-09-17T12:17:21.855Z,1.53
2017-09-17T12:19:50.870Z,1.53
2017-09-17T12:22:19.124Z,1.37
2017-09-17T12:24:47.616Z,1.00
2017-09-17T12:27:15.882Z,1.73
2017-09-17T12:29:44.131Z,1.10
2017-09-17T12:32:12.380Z,1.50
2017-09-17T12:34:40.655Z,1.97
2017-09-17T12:37:08.909Z,1.50
2017-09-17T12:39:37.180Z,1.80
2017-09-17T12:42:05.429Z,1.83
2017-09-17T12:44:34.450Z,1.77
2017-09-17T12:47:02.709Z,1.23
2017-09-17T12:49:30.966Z,1.30
2017-09-17T12:51:59.990Z,1.60
2017-09-17T12:54:28.256Z,1.20
2017-09-17T12:56:56.503Z,1.10
2017-09-17T12:59:25.542Z,1.57
2017-09-17T13:01:53.786Z,1.70
2017-09-17T13:04:22.825Z,1.17
2017-09-17T13:06:51.070Z,1.17
2017-09-17T13:09:19.316Z,1.40
2017-09-17T13:11:48.335Z,1.47
2017-09-17T13:14:16.584Z,1.20
2017-09-17T13:16:45.599Z,1.20
2017-09-17T13:19:13.877Z,1.10
2017-09-17T13:21:42.888Z,1.17
2017-09-17T13:24:11.137Z,1.10
2017-09-17T13:26:40.165Z,1.30
2017-09-17T13:29:08.409Z,1.53
2017-09-17T13:31:36.666Z,1.30
2017-09-17T13:34:05.684Z,1.13
2017-09-17T13:36:33.950Z,1.20
2017-09-17T13:39:02.210Z,1.00
2017-09-17T13:41:31.233Z,1.20
2017-09-17T13:43:59.480Z,1.07
2017-09-17T13:46:28.498Z,1.00
2017-09-17T13:48:56.748Z,0.90
2017-09-17T13:51:25.760Z,1.13
2017-09-17T13:53:54.026Z,0.90
2017-09-17T13:56:23.049Z,0.83
2017-09-17T13:58:51.308Z,0.80
2017-09-17T14:01:25.082Z,0.70
2017-09-17T14:04:05.195Z,0.70
2017-09-17T14:06:38.923Z,0.70
2017-09-17T14:09:09.497Z,0.70
2017-09-17T14:11:37.763Z,0.80
2017-09-17T14:14:06.790Z,0.70
2017-09-17T14:16:35.047Z,0.70
2017-09-17T14:19:03.296Z,0.80
2017-09-17T14:21:32.321Z,0.67
2017-09-17T14:24:00.576Z,0.90
2017-09-17T14:26:29.605Z,0.77
2017-09-17T14:28:57.866Z,0.70
2017-09-17T14:31:26.112Z,0.70
2017-09-17T14:33:55.120Z,0.93
2017-09-17T14:36:23.386Z,0.73
2017-09-17T14:38:52.406Z,0.83
2017-09-17T14:41:20.662Z,0.70
2017-09-17T14:43:48.907Z,0.97
2017-09-17T14:46:17.159Z,0.83
2017-09-17T14:48:45.423Z,0.73
2017-09-17T14:51:13.687Z,0.70
2017-09-17T14:53:41.944Z,1.00
2017-09-17T14:56:10.192Z,0.90
2017-09-17T14:58:38.446Z,1.00
2017-09-17T15:01:06.700Z,0.90
2017-09-17T15:03:35.069Z,0.80
2017-09-17T15:06:03.306Z,0.80
2017-09-17T15:08:32.331Z,0.80
2017-09-17T15:11:00.571Z,1.33
2017-09-17T15:13:29.591Z,1.30
2017-09-17T15:15:57.833Z,0.80
2017-09-17T15:18:26.861Z,1.00
2017-09-17T15:20:55.112Z,0.97
2017-09-17T15:23:24.136Z,0.90
2017-09-17T15:25:52.388Z,1.13
2017-09-17T15:28:21.405Z,0.80
2017-09-17T15:30:49.653Z,1.00
2017-09-17T15:33:18.664Z,1.00
2017-09-17T15:35:46.919Z,0.97
2017-09-17T15:38:15.938Z,1.00
2017-09-17T15:40:44.196Z,1.40
2017-09-17T15:43:13.207Z,1.27
2017-09-17T15:45:41.464Z,0.93
2017-09-17T15:48:10.489Z,1.00
2017-09-17T15:50:38.738Z,1.30
2017-09-17T15:53:06.990Z,1.20
2017-09-17T15:55:36.015Z,1.10
2017-09-17T15:58:04.260Z,0.93
2017-09-17T16:00:33.288Z,1.00
2017-09-17T16:03:01.536Z,1.43
2017-09-17T16:05:30.564Z,1.00
2017-09-17T16:07:58.806Z,1.10
2017-09-17T16:10:27.818Z,1.67
2017-09-17T16:12:56.082Z,1.63
2017-09-17T16:15:25.103Z,1.10
2017-09-17T16:17:53.349Z,1.90
2017-09-17T16:20:22.361Z,0.97
2017-09-17T16:22:50.619Z,1.00
2017-09-17T16:25:19.635Z,1.17
2017-09-17T16:27:47.887Z,1.20
2017-09-17T16:30:16.139Z,1.30
2017-09-17T16:32:45.154Z,1.20
2017-09-17T16:35:13.402Z,1.97
2017-09-17T16:37:41.670Z,1.40
2017-09-17T16:40:09.924Z,1.40
2017-09-17T16:42:38.176Z,1.23
2017-09-17T16:45:06.442Z,1.07
2017-09-17T16:47:34.689Z,1.40
2017-09-17T16:50:03.711Z,1.17
2017-09-17T16:52:31.967Z,1.10
2017-09-17T16:55:00.987Z,1.40
2017-09-17T16:57:29.250Z,1.20
2017-09-17T16:59:57.516Z,0.97
2017-09-17T17:02:25.816Z,1.00
2017-09-17T17:04:54.067Z,1.40
2017-09-17T17:07:23.088Z,1.57
2017-09-17T17:09:51.351Z,1.13
2017-09-17T17:12:19.611Z,1.33
2017-09-17T17:14:48.651Z,1.00
2017-09-17T17:17:16.905Z,1.37
2017-09-17T17:19:45.155Z,1.40
2017-09-17T17:22:14.184Z,1.40
2017-09-17T17:24:42.426Z,1.30
2017-09-17T17:27:10.683Z,1.83
2017-09-17T17:29:38.936Z,1.87
2017-09-17T17:32:07.196Z,1.70
2017-09-17T17:34:35.449Z,2.30
2017-09-17T17:37:03.711Z,3.40
2017-09-17T17:39:31.957Z,3.20
2017-09-17T17:42:00.986Z,3.63
2017-09-17T17:44:29.231Z,2.53
2017-09-17T17:46:58.255Z,2.20
2017-09-17T17:49:26.513Z,2.37
2017-09-17T17:51:55.533Z,1.80
2017-09-17T17:54:23.789Z,1.60
2017-09-17T17:56:52.054Z,2.10
2017-09-17T17:59:21.797Z,2.20
2017-09-17T18:01:50.070Z,1.90
2017-09-17T18:04:18.397Z,2.20
2017-09-17T18:06:46.642Z,2.23
2017-09-17T18:09:14.895Z,2.40
2017-09-17T18:11:43.957Z,2.40
2017-09-17T18:14:12.987Z,2.00
2017-09-17T18:16:41.227Z,2.10
2017-09-17T18:19:10.255Z,2.90
2017-09-17T18:21:38.489Z,3.87
2017-09-17T18:24:07.523Z,2.60
2017-09-17T18:26:35.763Z,2.50
2017-09-17T18:29:04.788Z,2.20
2017-09-17T18:31:33.096Z,2.53
2017-09-17T18:34:01.358Z,2.20
2017-09-17T18:36:29.607Z,2.20
2017-09-17T18:38:57.855Z,2.23
2017-09-17T18:41:26.887Z,2.53
2017-09-17T18:43:55.131Z,2.53
2017-09-17T18:46:24.156Z,2.30
2017-09-17T18:48:56.239Z,2.57
2017-09-17T18:51:24.491Z,2.17
2017-09-17T18:53:52.762Z,1.60
2017-09-17T18:56:21.017Z,2.00
2017-09-17T18:58:50.031Z,1.50
2017-09-17T19:01:18.297Z,2.10
2017-09-17T19:03:46.540Z,2.07
2017-09-17T19:06:14.791Z,1.73
2017-09-17T19:08:43.038Z,1.63
2017-09-17T19:11:11.306Z,1.97
2017-09-17T19:13:39.555Z,2.10
2017-09-17T19:16:08.571Z,1.60
2017-09-17T19:18:36.826Z,1.90
2017-09-17T19:21:05.838Z,1.63
2017-09-17T19:23:34.103Z,2.27
2017-09-17T19:26:03.121Z,2.10
2017-09-17T19:28:31.566Z,2.10
2017-09-17T19:31:00.584Z,1.63
2017-09-17T19:33:29.088Z,2.00
2017-09-17T19:35:57.323Z,1.53
2017-09-17T19:38:26.362Z,1.73
2017-09-17T19:40:54.607Z,1.50
2017-09-17T19:43:22.857Z,1.70
2017-09-17T19:45:51.879Z,2.20
2017-09-17T19:48:20.127Z,2.07
2017-09-17T19:50:49.149Z,2.03
2017-09-17T19:53:17.394Z,1.63
2017-09-17T19:55:46.417Z,1.70
2017-09-17T19:58:14.673Z,1.70
2017-09-17T20:00:43.694Z,1.57
2017-09-17T20:03:11.949Z,1.60
2017-09-17T20:05:40.207Z,1.80
2017-09-17T20:08:09.218Z,2.20
2017-09-17T20:10:37.491Z,2.07
2017-09-17T20:13:06.507Z,1.70
2017-09-17T20:15:34.812Z,1.70
2017-09-17T20:18:03.062Z,2.00
2017-09-17T20:20:31.315Z,2.07
2017-09-17T20:22:59.565Z,4.67
2017-09-17T20:25:28.600Z,4.40
2017-09-17T20:27:56.864Z,2.80
2017-09-17T20:30:25.166Z,3.23
2017-09-17T20:32:53.404Z,2.30
2017-09-17T20:35:22.423Z,3.40
2017-09-17T20:37:50.670Z,4.03
2017-09-17T20:40:19.700Z,4.90
2017-09-17T20:42:47.939Z,4.50
2017-09-17T20:45:16.200Z,4.23
2017-09-17T20:47:45.263Z,4.30
2017-09-17T20:50:13.578Z,3.30
2017-09-17T20:52:41.942Z,2.57
2017-09-17T20:55:10.200Z,3.00
2017-09-17T20:57:38.460Z,2.50
2017-09-17T21:00:06.710Z,2.83
2017-09-17T21:02:34.967Z,2.87
2017-09-17T21:05:03.223Z,3.00
2017-09-17T21:07:31.471Z,2.60
2017-09-17T21:09:59.718Z,2.47
2017-09-17T21:12:27.967Z,2.83
2017-09-17T21:14:57.016Z,2.30
2017-09-17T21:17:25.263Z,2.33
2017-09-17T21:19:53.523Z,2.40
2017-09-17T21:22:21.765Z,2.47
2017-09-17T21:24:50.017Z,2.70
2017-09-17T21:27:18.264Z,2.40
2017-09-17T21:29:46.520Z,2.80
2017-09-17T21:32:14.778Z,3.00
2017-09-17T21:34:43.800Z,3.17
2017-09-17T21:37:12.049Z,2.23
2017-09-17T21:39:41.071Z,3.30
2017-09-17T21:42:09.313Z,3.20
2017-09-17T21:44:38.347Z,2.90
2017-09-17T21:47:06.604Z,2.40
2017-09-17T21:49:34.868Z,2.90
2017-09-17T21:52:03.874Z,3.00
2017-09-17T21:54:32.133Z,3.33
2017-09-17T21:57:01.161Z,2.67
2017-09-17T21:59:29.419Z,2.30
2017-09-17T22:01:57.672Z,2.40
2017-09-17T22:04:26.694Z,2.77
2017-09-17T22:06:54.947Z,2.57
2017-09-17T22:09:23.969Z,2.50
2017-09-17T22:11:52.202Z,2.60
2017-09-17T22:14:21.237Z,2.80
2017-09-17T22:16:49.491Z,3.00
2017-09-17T22:19:18.520Z,3.07
2017-09-17T22:21:46.764Z,2.30
2017-09-17T22:24:15.028Z,2.70
2017-09-17T22:26:43.283Z,2.70
2017-09-17T22:29:11.537Z,2.37
2017-09-17T22:31:39.791Z,2.57
2017-09-17T22:34:08.038Z,2.57
2017-09-17T22:36:36.287Z,3.27
2017-09-17T22:39:04.568Z,3.30
2017-09-17T22:41:33.590Z,3.47
2017-09-17T22:44:01.839Z,3.20
2017-09-17T22:46:30.861Z,3.27
2017-09-17T22:48:59.120Z,3.57
2017-09-17T22:51:28.130Z,3.00
2017-09-17T22:53:56.367Z,3.60
2017-09-17T22:56:24.619Z,3.40
2017-09-17T22:58:52.864Z,3.60
2017-09-17T23:01:21.114Z,3.37
2017-09-17T23:03:50.125Z,3.13
2017-09-17T23:06:18.376Z,3.10
2017-09-17T23:08:47.383Z,3.20
2017-09-17T23:11:15.640Z,2.70
2017-09-17T23:13:44.652Z,2.83
2017-09-17T23:16:12.900Z,2.60
2017-09-17T23:18:41.144Z,2.87
2017-09-17T23:21:09.386Z,2.60
2017-09-17T23:23:37.627Z,2.23
2017-09-17T23:26:05.869Z,2.77
2017-09-17T23:28:34.116Z,2.53
2017-09-17T23:31:02.367Z,2.53
2017-09-17T23:33:31.366Z,2.83
2017-09-17T23:35:59.619Z,2.57
2017-09-17T23:38:27.860Z,2.63
2017-09-17T23:40:56.117Z,3.17
2017-09-17T23:43:24.367Z,2.40
2017-09-17T23:45:53.388Z,2.57
2017-09-17T23:48:21.631Z,2.13
2017-09-17T23:50:50.652Z,2.50
2017-09-17T23:53:18.930Z,2.40
2017-09-17T23:55:47.913Z,2.47
2017-09-17T23:58:16.164Z,2.27
